Willmathsville, Missouri
Current Conditions -  °F | °C
As of 9:05 PM on Sunday 21 Dec 2014 (Local Time) from KIRK Reporting Station
Overcast Overcast  
Wind Chill: 34°   Ceiling: 1300
Heat Index: 41°   Visibility: 8mi
Dew Point: 39°   Wind: 13mph
Humidity: 93%   Direction: 160°SSE
Pressure: 29.86"   Gusts: NA
Location:  40.3435°N, 92.5364°W
Report Text: KIRK 220305Z AUTO 16011KT 8SM OVC013 05/04 A2986 RMK AO2 T00500039
Loading
Personal Weather Stations






























Interactive Weather Map New forecast layout! Learn more

10-Day Weather Forecast

Advertisements
Track Severe Weather on mobile